createdAt,value
2022-10-17T00:05:23.351Z,69.22
2022-10-17T00:11:26.375Z,68.76
2022-10-17T00:17:39.443Z,68.74
2022-10-17T00:23:41.343Z,76.06
2022-10-17T00:29:44.258Z,71.09
2022-10-17T00:35:46.340Z,69.64
2022-10-17T00:41:48.347Z,69.47
2022-10-17T00:48:04.292Z,69.01
2022-10-17T00:54:07.238Z,77.38
2022-10-17T01:00:12.067Z,70.29
2022-10-17T01:06:14.125Z,70.90
2022-10-17T01:12:25.432Z,69.07
2022-10-17T01:18:33.937Z,70.01
2022-10-17T01:25:01.009Z,70.76
2022-10-17T01:31:16.699Z,69.67
2022-10-17T01:37:28.759Z,71.08
2022-10-17T01:44:05.413Z,70.50
2022-10-17T01:50:17.027Z,70.26
2022-10-17T01:56:22.202Z,70.78
2022-10-17T02:02:26.693Z,70.51
2022-10-17T02:08:43.059Z,72.09
2022-10-17T02:14:56.832Z,70.92
2022-10-17T02:21:08.771Z,78.03
2022-10-17T02:27:19.941Z,72.66
2022-10-17T02:33:28.042Z,71.82
2022-10-17T02:39:31.911Z,71.54
2022-10-17T02:45:36.969Z,72.33
2022-10-17T02:51:57.032Z,75.94
2022-10-17T02:58:13.347Z,74.20
2022-10-17T03:04:15.842Z,71.65
2022-10-17T03:10:18.485Z,71.67
2022-10-17T03:16:20.269Z,72.01
2022-10-17T03:22:22.118Z,77.65
2022-10-17T03:28:24.354Z,72.63
2022-10-17T03:34:26.266Z,72.03
2022-10-17T03:40:28.467Z,72.17
2022-10-17T03:46:30.403Z,73.38
2022-10-17T03:52:32.226Z,72.26
2022-10-17T03:58:34.013Z,71.70
2022-10-17T04:04:35.884Z,72.73
2022-10-17T04:10:37.817Z,71.90
2022-10-17T04:16:39.796Z,73.03
2022-10-17T04:22:41.597Z,73.76
2022-10-17T04:28:43.396Z,71.93
2022-10-17T04:34:49.176Z,76.20
2022-10-17T04:40:51.060Z,75.30
2022-10-17T04:46:52.949Z,72.96
2022-10-17T04:52:54.832Z,72.34
2022-10-17T04:58:59.562Z,72.40
2022-10-17T05:05:01.900Z,74.87
2022-10-17T05:11:22.371Z,75.83
2022-10-17T05:17:34.592Z,73.05
2022-10-17T06:03:37.037Z,74.71
2022-10-17T07:19:50.713Z,70.53
2022-10-17T07:33:08.209Z,68.31
2022-10-17T07:46:42.988Z,67.86
2022-10-17T07:52:51.978Z,64.49
2022-10-17T07:59:08.251Z,64.64
2022-10-17T09:13:51.481Z,52.81
2022-10-17T09:20:25.072Z,52.69
2022-10-17T15:42:11.892Z,49.72
2022-10-17T15:56:00.330Z,48.44
2022-10-17T16:09:41.814Z,51.48
2022-10-17T16:15:50.541Z,50.68
2022-10-17T16:35:37.594Z,51.44
2022-10-17T16:41:58.718Z,50.63
2022-10-17T16:54:43.074Z,50.50
2022-10-17T17:07:14.880Z,53.42
2022-10-17T17:13:40.990Z,53.61
2022-10-17T17:20:12.725Z,53.09
2022-10-17T17:26:17.864Z,53.66
2022-10-17T17:32:27.908Z,53.43
2022-10-17T17:38:49.731Z,54.47
2022-10-17T17:59:45.960Z,56.67
2022-10-17T18:06:16.907Z,59.42
2022-10-17T18:12:32.641Z,59.31
2022-10-17T18:18:42.462Z,64.07
2022-10-17T18:24:50.436Z,60.84
2022-10-17T18:30:52.417Z,60.18
2022-10-17T18:36:58.163Z,61.02
2022-10-17T18:43:04.478Z,61.10
2022-10-17T18:49:07.849Z,67.19
2022-10-17T19:01:33.083Z,63.36
2022-10-17T19:07:41.812Z,63.12
2022-10-17T19:13:47.982Z,61.51
2022-10-17T19:20:02.451Z,61.64
2022-10-17T19:26:12.505Z,69.43
2022-10-17T19:32:29.125Z,64.81
2022-10-17T19:52:02.032Z,63.50
2022-10-17T19:58:15.764Z,63.04
2022-10-17T20:04:22.106Z,68.50
2022-10-17T20:10:28.851Z,71.59
2022-10-17T20:23:18.567Z,66.34
2022-10-17T20:29:30.062Z,66.92
2022-10-17T20:35:33.898Z,65.90
2022-10-17T20:41:35.976Z,75.39
2022-10-17T20:47:52.283Z,69.03
2022-10-17T20:59:59.467Z,73.39
2022-10-17T21:06:07.649Z,68.95
2022-10-17T21:12:49.939Z,67.21
2022-10-17T21:18:59.337Z,73.59
2022-10-17T21:25:01.846Z,73.82
2022-10-17T21:31:20.698Z,75.70
2022-10-17T21:37:29.516Z,72.30
2022-10-17T21:43:40.145Z,68.59
2022-10-17T21:49:43.916Z,68.73
2022-10-17T21:55:46.052Z,67.87
2022-10-17T22:01:50.433Z,67.35
2022-10-17T22:08:01.411Z,71.05
2022-10-17T22:20:30.135Z,67.15
2022-10-17T22:26:45.146Z,69.66
2022-10-17T22:33:25.891Z,68.69
2022-10-17T22:39:36.182Z,70.46
2022-10-17T22:45:40.726Z,68.35
2022-10-17T22:51:46.169Z,68.71
2022-10-17T22:57:51.438Z,67.21
2022-10-17T23:04:00.045Z,73.03
2022-10-17T23:10:02.358Z,68.93
2022-10-17T23:16:05.537Z,68.46
2022-10-17T23:22:10.870Z,68.68
2022-10-17T23:28:15.847Z,75.94
2022-10-17T23:34:22.142Z,69.61
2022-10-17T23:40:29.568Z,69.29
2022-10-17T23:46:49.933Z,70.17
2022-10-17T23:52:55.380Z,70.55
2022-10-17T23:59:06.016Z,70.02
